sensor_id;sensor_type;location;lat;lon;timestamp;P1;durP1;ratioP1;P2;durP2;ratioP2
17947;SDS011;9099;47.958;11.366;2023-11-21T00:00:23;4.32;;;0.77;;
17947;SDS011;9099;47.958;11.366;2023-11-21T00:02:51;2.72;;;1.00;;
17947;SDS011;9099;47.958;11.366;2023-11-21T00:05:17;4.45;;;1.02;;
17947;SDS011;9099;47.958;11.366;2023-11-21T00:07:44;2.58;;;0.93;;
17947;SDS011;9099;47.958;11.366;2023-11-21T00:10:12;1.95;;;0.88;;
17947;SDS011;9099;47.958;11.366;2023-11-21T00:12:41;5.00;;;1.13;;
17947;SDS011;9099;47.958;11.366;2023-11-21T00:15:08;3.03;;;0.93;;
17947;SDS011;9099;47.958;11.366;2023-11-21T00:17:36;3.78;;;1.00;;
17947;SDS011;9099;47.958;11.366;2023-11-21T00:20:04;1.58;;;0.60;;
17947;SDS011;9099;47.958;11.366;2023-11-21T00:22:32;3.47;;;1.00;;
17947;SDS011;9099;47.958;11.366;2023-11-21T00:24:59;3.88;;;0.80;;
17947;SDS011;9099;47.958;11.366;2023-11-21T00:27:29;1.63;;;0.75;;
17947;SDS011;9099;47.958;11.366;2023-11-21T00:29:55;1.10;;;0.88;;
17947;SDS011;9099;47.958;11.366;2023-11-21T00:32:22;1.63;;;0.70;;
17947;SDS011;9099;47.958;11.366;2023-11-21T00:34:49;4.05;;;0.98;;
17947;SDS011;9099;47.958;11.366;2023-11-21T00:37:16;2.35;;;1.00;;
17947;SDS011;9099;47.958;11.366;2023-11-21T00:39:43;2.95;;;0.90;;
17947;SDS011;9099;47.958;11.366;2023-11-21T00:42:10;2.95;;;0.90;;
17947;SDS011;9099;47.958;11.366;2023-11-21T00:44:39;4.35;;;1.00;;
17947;SDS011;9099;47.958;11.366;2023-11-21T00:47:05;2.88;;;0.90;;
17947;SDS011;9099;47.958;11.366;2023-11-21T00:52:55;2.03;;;0.90;;
17947;SDS011;9099;47.958;11.366;2023-11-21T00:55:21;2.28;;;0.80;;
17947;SDS011;9099;47.958;11.366;2023-11-21T00:57:48;3.13;;;0.68;;
17947;SDS011;9099;47.958;11.366;2023-11-21T01:00:17;2.70;;;0.90;;
17947;SDS011;9099;47.958;11.366;2023-11-21T01:02:44;2.92;;;1.10;;
17947;SDS011;9099;47.958;11.366;2023-11-21T01:05:12;2.67;;;1.00;;
17947;SDS011;9099;47.958;11.366;2023-11-21T01:07:39;1.65;;;0.70;;
17947;SDS011;9099;47.958;11.366;2023-11-21T01:10:06;1.48;;;0.75;;
17947;SDS011;9099;47.958;11.366;2023-11-21T01:12:34;2.65;;;0.90;;
17947;SDS011;9099;47.958;11.366;2023-11-21T01:15:01;2.40;;;1.00;;
17947;SDS011;9099;47.958;11.366;2023-11-21T01:17:30;3.15;;;0.88;;
17947;SDS011;9099;47.958;11.366;2023-11-21T01:19:57;2.25;;;0.90;;
17947;SDS011;9099;47.958;11.366;2023-11-21T01:22:24;2.20;;;0.75;;
17947;SDS011;9099;47.958;11.366;2023-11-21T01:24:51;3.50;;;0.93;;
17947;SDS011;9099;47.958;11.366;2023-11-21T01:27:18;1.38;;;0.80;;
17947;SDS011;9099;47.958;11.366;2023-11-21T01:29:45;3.83;;;1.08;;
17947;SDS011;9099;47.958;11.366;2023-11-21T01:32:12;2.63;;;0.95;;
17947;SDS011;9099;47.958;11.366;2023-11-21T01:34:40;2.22;;;0.90;;
17947;SDS011;9099;47.958;11.366;2023-11-21T01:37:07;6.72;;;1.10;;
17947;SDS011;9099;47.958;11.366;2023-11-21T01:39:37;2.55;;;1.10;;
17947;SDS011;9099;47.958;11.366;2023-11-21T01:42:04;3.15;;;0.90;;
17947;SDS011;9099;47.958;11.366;2023-11-21T01:44:32;3.13;;;1.15;;
17947;SDS011;9099;47.958;11.366;2023-11-21T01:46:59;4.43;;;1.30;;
17947;SDS011;9099;47.958;11.366;2023-11-21T01:49:30;3.83;;;1.30;;
17947;SDS011;9099;47.958;11.366;2023-11-21T01:52:00;2.83;;;1.30;;
17947;SDS011;9099;47.958;11.366;2023-11-21T01:54:27;2.42;;;1.00;;
17947;SDS011;9099;47.958;11.366;2023-11-21T01:56:56;3.05;;;0.95;;
17947;SDS011;9099;47.958;11.366;2023-11-21T01:59:28;2.45;;;1.00;;
17947;SDS011;9099;47.958;11.366;2023-11-21T02:02:00;2.58;;;1.38;;
17947;SDS011;9099;47.958;11.366;2023-11-21T02:04:26;2.35;;;1.10;;
17947;SDS011;9099;47.958;11.366;2023-11-21T02:06:53;2.13;;;1.10;;
17947;SDS011;9099;47.958;11.366;2023-11-21T02:09:25;3.38;;;1.05;;
17947;SDS011;9099;47.958;11.366;2023-11-21T02:11:52;2.35;;;0.98;;
17947;SDS011;9099;47.958;11.366;2023-11-21T02:14:19;3.08;;;1.00;;
17947;SDS011;9099;47.958;11.366;2023-11-21T02:16:47;3.47;;;1.10;;
17947;SDS011;9099;47.958;11.366;2023-11-21T02:19:17;2.67;;;1.30;;
17947;SDS011;9099;47.958;11.366;2023-11-21T02:21:47;3.17;;;1.20;;
17947;SDS011;9099;47.958;11.366;2023-11-21T02:24:18;3.60;;;1.35;;
17947;SDS011;9099;47.958;11.366;2023-11-21T02:26:45;3.10;;;1.10;;
17947;SDS011;9099;47.958;11.366;2023-11-21T02:29:12;3.60;;;1.10;;
17947;SDS011;9099;47.958;11.366;2023-11-21T02:31:41;2.90;;;1.00;;
17947;SDS011;9099;47.958;11.366;2023-11-21T02:34:13;2.20;;;1.08;;
17947;SDS011;9099;47.958;11.366;2023-11-21T02:36:40;2.92;;;1.20;;
17947;SDS011;9099;47.958;11.366;2023-11-21T02:39:07;3.05;;;1.15;;
17947;SDS011;9099;47.958;11.366;2023-11-21T02:41:36;4.40;;;1.20;;
17947;SDS011;9099;47.958;11.366;2023-11-21T02:44:04;1.92;;;1.20;;
17947;SDS011;9099;47.958;11.366;2023-11-21T02:46:32;3.20;;;1.45;;
17947;SDS011;9099;47.958;11.366;2023-11-21T02:48:59;1.95;;;0.88;;
17947;SDS011;9099;47.958;11.366;2023-11-21T02:51:26;2.35;;;1.20;;
17947;SDS011;9099;47.958;11.366;2023-11-21T02:53:53;2.53;;;0.95;;
17947;SDS011;9099;47.958;11.366;2023-11-21T02:56:23;1.48;;;0.90;;
17947;SDS011;9099;47.958;11.366;2023-11-21T02:58:52;2.10;;;0.80;;
17947;SDS011;9099;47.958;11.366;2023-11-21T03:01:19;2.55;;;0.90;;
17947;SDS011;9099;47.958;11.366;2023-11-21T03:03:45;2.55;;;1.35;;
17947;SDS011;9099;47.958;11.366;2023-11-21T03:06:16;2.95;;;1.10;;
17947;SDS011;9099;47.958;11.366;2023-11-21T03:08:43;2.20;;;1.23;;
17947;SDS011;9099;47.958;11.366;2023-11-21T03:11:09;1.85;;;0.80;;
17947;SDS011;9099;47.958;11.366;2023-11-21T03:13:37;2.88;;;1.00;;
17947;SDS011;9099;47.958;11.366;2023-11-21T03:16:06;2.22;;;1.20;;
17947;SDS011;9099;47.958;11.366;2023-11-21T03:18:34;1.10;;;0.82;;
17947;SDS011;9099;47.958;11.366;2023-11-21T03:21:01;1.75;;;0.93;;
17947;SDS011;9099;47.958;11.366;2023-11-21T03:23:28;1.42;;;0.73;;
17947;SDS011;9099;47.958;11.366;2023-11-21T03:25:55;1.05;;;0.60;;
17947;SDS011;9099;47.958;11.366;2023-11-21T03:28:22;1.45;;;0.70;;
17947;SDS011;9099;47.958;11.366;2023-11-21T03:30:48;1.63;;;0.70;;
17947;SDS011;9099;47.958;11.366;2023-11-21T03:33:17;3.28;;;0.70;;
17947;SDS011;9099;47.958;11.366;2023-11-21T03:35:43;1.27;;;0.65;;
17947;SDS011;9099;47.958;11.366;2023-11-21T03:38:11;2.63;;;0.68;;
17947;SDS011;9099;47.958;11.366;2023-11-21T03:40:38;1.77;;;0.60;;
17947;SDS011;9099;47.958;11.366;2023-11-21T03:43:05;1.85;;;0.70;;
17947;SDS011;9099;47.958;11.366;2023-11-21T03:45:32;1.05;;;0.60;;
17947;SDS011;9099;47.958;11.366;2023-11-21T03:47:59;1.75;;;0.65;;
17947;SDS011;9099;47.958;11.366;2023-11-21T03:50:28;2.00;;;0.88;;
17947;SDS011;9099;47.958;11.366;2023-11-21T03:52:54;1.60;;;0.55;;
17947;SDS011;9099;47.958;11.366;2023-11-21T03:55:21;1.90;;;0.70;;
17947;SDS011;9099;47.958;11.366;2023-11-21T03:57:49;1.38;;;0.60;;
17947;SDS011;9099;47.958;11.366;2023-11-21T04:00:15;1.17;;;0.75;;
17947;SDS011;9099;47.958;11.366;2023-11-21T04:02:42;1.45;;;0.85;;
17947;SDS011;9099;47.958;11.366;2023-11-21T04:05:09;1.88;;;0.95;;
17947;SDS011;9099;47.958;11.366;2023-11-21T04:07:37;1.35;;;0.90;;
17947;SDS011;9099;47.958;11.366;2023-11-21T04:10:04;1.40;;;0.65;;
17947;SDS011;9099;47.958;11.366;2023-11-21T04:12:33;1.42;;;0.60;;
17947;SDS011;9099;47.958;11.366;2023-11-21T04:15:00;2.85;;;0.57;;
17947;SDS011;9099;47.958;11.366;2023-11-21T04:17:27;1.95;;;0.70;;
17947;SDS011;9099;47.958;11.366;2023-11-21T04:19:54;1.40;;;0.80;;
17947;SDS011;9099;47.958;11.366;2023-11-21T04:22:21;2.70;;;0.77;;
17947;SDS011;9099;47.958;11.366;2023-11-21T04:24:49;1.90;;;0.73;;
17947;SDS011;9099;47.958;11.366;2023-11-21T04:27:16;3.22;;;0.90;;
17947;SDS011;9099;47.958;11.366;2023-11-21T04:29:43;2.03;;;0.73;;
17947;SDS011;9099;47.958;11.366;2023-11-21T04:32:10;1.50;;;0.68;;
17947;SDS011;9099;47.958;11.366;2023-11-21T04:34:37;2.35;;;0.90;;
17947;SDS011;9099;47.958;11.366;2023-11-21T04:37:04;1.40;;;0.82;;
17947;SDS011;9099;47.958;11.366;2023-11-21T04:39:31;2.22;;;0.73;;
17947;SDS011;9099;47.958;11.366;2023-11-21T04:41:59;2.38;;;0.90;;
17947;SDS011;9099;47.958;11.366;2023-11-21T04:44:26;4.00;;;0.90;;
17947;SDS011;9099;47.958;11.366;2023-11-21T04:46:53;2.70;;;0.70;;
17947;SDS011;9099;47.958;11.366;2023-11-21T04:49:20;0.98;;;0.50;;
17947;SDS011;9099;47.958;11.366;2023-11-21T04:51:47;2.55;;;1.05;;
17947;SDS011;9099;47.958;11.366;2023-11-21T04:54:14;1.60;;;0.77;;
17947;SDS011;9099;47.958;11.366;2023-11-21T04:56:41;1.45;;;0.63;;
17947;SDS011;9099;47.958;11.366;2023-11-21T04:59:09;1.95;;;0.70;;
17947;SDS011;9099;47.958;11.366;2023-11-21T05:01:36;2.03;;;0.70;;
17947;SDS011;9099;47.958;11.366;2023-11-21T05:04:04;1.33;;;0.63;;
17947;SDS011;9099;47.958;11.366;2023-11-21T05:06:33;1.77;;;0.63;;
17947;SDS011;9099;47.958;11.366;2023-11-21T05:09:00;0.85;;;0.52;;
17947;SDS011;9099;47.958;11.366;2023-11-21T05:11:27;1.40;;;0.55;;
17947;SDS011;9099;47.958;11.366;2023-11-21T05:13:55;1.42;;;0.50;;
17947;SDS011;9099;47.958;11.366;2023-11-21T05:16:25;1.55;;;0.70;;
17947;SDS011;9099;47.958;11.366;2023-11-21T05:18:53;2.05;;;1.23;;
17947;SDS011;9099;47.958;11.366;2023-11-21T05:21:25;3.42;;;0.60;;
17947;SDS011;9099;47.958;11.366;2023-11-21T05:23:52;2.47;;;0.63;;
17947;SDS011;9099;47.958;11.366;2023-11-21T05:26:19;1.13;;;0.60;;
17947;SDS011;9099;47.958;11.366;2023-11-21T05:28:45;1.70;;;0.95;;
17947;SDS011;9099;47.958;11.366;2023-11-21T05:31:13;2.22;;;0.77;;
17947;SDS011;9099;47.958;11.366;2023-11-21T05:33:41;1.95;;;0.55;;
17947;SDS011;9099;47.958;11.366;2023-11-21T05:36:08;1.67;;;0.70;;
17947;SDS011;9099;47.958;11.366;2023-11-21T05:38:36;2.38;;;1.13;;
17947;SDS011;9099;47.958;11.366;2023-11-21T05:41:02;1.42;;;1.10;;
17947;SDS011;9099;47.958;11.366;2023-11-21T05:43:30;1.38;;;0.90;;
17947;SDS011;9099;47.958;11.366;2023-11-21T05:45:57;1.35;;;0.60;;
17947;SDS011;9099;47.958;11.366;2023-11-21T05:48:24;1.73;;;0.60;;
17947;SDS011;9099;47.958;11.366;2023-11-21T05:50:53;1.70;;;1.00;;
17947;SDS011;9099;47.958;11.366;2023-11-21T05:53:20;1.90;;;0.70;;
17947;SDS011;9099;47.958;11.366;2023-11-21T05:55:46;0.90;;;0.80;;
17947;SDS011;9099;47.958;11.366;2023-11-21T05:58:13;1.33;;;0.50;;
17947;SDS011;9099;47.958;11.366;2023-11-21T06:00:40;1.83;;;0.75;;
17947;SDS011;9099;47.958;11.366;2023-11-21T06:03:07;1.80;;;0.50;;
17947;SDS011;9099;47.958;11.366;2023-11-21T06:05:35;2.10;;;0.70;;
17947;SDS011;9099;47.958;11.366;2023-11-21T06:08:03;1.92;;;0.85;;
17947;SDS011;9099;47.958;11.366;2023-11-21T06:10:31;3.55;;;0.80;;
17947;SDS011;9099;47.958;11.366;2023-11-21T06:12:59;1.30;;;0.80;;
17947;SDS011;9099;47.958;11.366;2023-11-21T06:15:26;2.15;;;0.60;;
17947;SDS011;9099;47.958;11.366;2023-11-21T06:17:52;2.58;;;0.75;;
17947;SDS011;9099;47.958;11.366;2023-11-21T06:20:19;1.50;;;0.55;;
17947;SDS011;9099;47.958;11.366;2023-11-21T06:22:48;1.85;;;0.82;;
17947;SDS011;9099;47.958;11.366;2023-11-21T06:25:17;1.05;;;0.65;;
17947;SDS011;9099;47.958;11.366;2023-11-21T06:27:44;2.15;;;0.55;;
17947;SDS011;9099;47.958;11.366;2023-11-21T06:30:12;1.42;;;0.70;;
17947;SDS011;9099;47.958;11.366;2023-11-21T06:32:40;2.33;;;0.80;;
17947;SDS011;9099;47.958;11.366;2023-11-21T06:35:10;1.85;;;0.70;;
17947;SDS011;9099;47.958;11.366;2023-11-21T06:37:38;1.40;;;0.60;;
17947;SDS011;9099;47.958;11.366;2023-11-21T06:40:05;1.42;;;0.88;;
17947;SDS011;9099;47.958;11.366;2023-11-21T06:42:35;2.67;;;0.90;;
17947;SDS011;9099;47.958;11.366;2023-11-21T06:45:03;2.25;;;0.75;;
17947;SDS011;9099;47.958;11.366;2023-11-21T06:47:30;2.88;;;0.93;;
17947;SDS011;9099;47.958;11.366;2023-11-21T06:49:58;2.30;;;0.60;;
17947;SDS011;9099;47.958;11.366;2023-11-21T06:52:25;1.77;;;0.93;;
17947;SDS011;9099;47.958;11.366;2023-11-21T06:54:52;4.20;;;2.00;;
17947;SDS011;9099;47.958;11.366;2023-11-21T06:57:19;7.68;;;3.65;;
17947;SDS011;9099;47.958;11.366;2023-11-21T06:59:48;11.30;;;4.45;;
17947;SDS011;9099;47.958;11.366;2023-11-21T07:02:15;7.82;;;3.42;;
17947;SDS011;9099;47.958;11.366;2023-11-21T07:04:43;4.60;;;2.30;;
17947;SDS011;9099;47.958;11.366;2023-11-21T07:07:10;1.98;;;0.90;;
17947;SDS011;9099;47.958;11.366;2023-11-21T07:09:37;2.47;;;1.65;;
17947;SDS011;9099;47.958;11.366;2023-11-21T07:12:04;10.05;;;4.00;;
17947;SDS011;9099;47.958;11.366;2023-11-21T07:14:32;3.78;;;2.47;;
17947;SDS011;9099;47.958;11.366;2023-11-21T07:17:00;8.40;;;3.38;;
17947;SDS011;9099;47.958;11.366;2023-11-21T07:19:27;3.28;;;1.73;;
17947;SDS011;9099;47.958;11.366;2023-11-21T07:21:54;4.22;;;2.22;;
17947;SDS011;9099;47.958;11.366;2023-11-21T07:24:21;3.45;;;1.38;;
17947;SDS011;9099;47.958;11.366;2023-11-21T07:26:48;2.20;;;1.00;;
17947;SDS011;9099;47.958;11.366;2023-11-21T07:29:15;3.72;;;1.40;;
17947;SDS011;9099;47.958;11.366;2023-11-21T07:31:42;2.25;;;1.00;;
17947;SDS011;9099;47.958;11.366;2023-11-21T07:34:11;3.25;;;0.80;;
17947;SDS011;9099;47.958;11.366;2023-11-21T07:36:37;2.08;;;1.05;;
17947;SDS011;9099;47.958;11.366;2023-11-21T07:39:04;2.80;;;1.67;;
17947;SDS011;9099;47.958;11.366;2023-11-21T07:41:31;2.63;;;1.40;;
17947;SDS011;9099;47.958;11.366;2023-11-21T07:43:58;2.78;;;0.80;;
17947;SDS011;9099;47.958;11.366;2023-11-21T07:46:25;2.03;;;0.90;;
17947;SDS011;9099;47.958;11.366;2023-11-21T07:48:52;1.25;;;0.60;;
17947;SDS011;9099;47.958;11.366;2023-11-21T07:51:21;4.95;;;1.48;;
17947;SDS011;9099;47.958;11.366;2023-11-21T07:53:48;6.10;;;2.67;;
17947;SDS011;9099;47.958;11.366;2023-11-21T07:56:15;2.22;;;1.27;;
17947;SDS011;9099;47.958;11.366;2023-11-21T07:58:42;7.68;;;3.58;;
17947;SDS011;9099;47.958;11.366;2023-11-21T08:01:09;8.73;;;3.75;;
17947;SDS011;9099;47.958;11.366;2023-11-21T08:03:36;5.18;;;2.45;;
17947;SDS011;9099;47.958;11.366;2023-11-21T08:06:03;6.40;;;2.45;;
17947;SDS011;9099;47.958;11.366;2023-11-21T08:08:32;4.20;;;2.35;;
17947;SDS011;9099;47.958;11.366;2023-11-21T08:10:59;3.33;;;1.20;;
17947;SDS011;9099;47.958;11.366;2023-11-21T08:13:29;2.80;;;1.80;;
17947;SDS011;9099;47.958;11.366;2023-11-21T08:15:56;2.33;;;0.98;;
17947;SDS011;9099;47.958;11.366;2023-11-21T08:18:27;1.33;;;0.90;;
17947;SDS011;9099;47.958;11.366;2023-11-21T08:20:55;2.60;;;1.08;;
17947;SDS011;9099;47.958;11.366;2023-11-21T08:23:22;6.40;;;2.03;;
17947;SDS011;9099;47.958;11.366;2023-11-21T08:25:52;7.68;;;3.35;;
17947;SDS011;9099;47.958;11.366;2023-11-21T08:28:19;2.10;;;0.80;;
17947;SDS011;9099;47.958;11.366;2023-11-21T08:30:48;7.55;;;3.55;;
17947;SDS011;9099;47.958;11.366;2023-11-21T08:33:15;2.00;;;1.00;;
17947;SDS011;9099;47.958;11.366;2023-11-21T08:35:42;3.20;;;1.45;;
17947;SDS011;9099;47.958;11.366;2023-11-21T08:38:08;2.13;;;1.40;;
17947;SDS011;9099;47.958;11.366;2023-11-21T08:40:36;5.25;;;2.15;;
17947;SDS011;9099;47.958;11.366;2023-11-21T08:43:04;1.48;;;1.30;;
17947;SDS011;9099;47.958;11.366;2023-11-21T08:45:32;0.93;;;0.82;;
17947;SDS011;9099;47.958;11.366;2023-11-21T08:47:59;1.40;;;0.60;;
17947;SDS011;9099;47.958;11.366;2023-11-21T08:50:26;4.75;;;2.70;;
17947;SDS011;9099;47.958;11.366;2023-11-21T08:52:53;1.38;;;0.68;;
17947;SDS011;9099;47.958;11.366;2023-11-21T08:55:20;0.75;;;0.70;;
17947;SDS011;9099;47.958;11.366;2023-11-21T08:57:47;0.98;;;0.50;;
17947;SDS011;9099;47.958;11.366;2023-11-21T09:00:16;4.43;;;2.63;;
17947;SDS011;9099;47.958;11.366;2023-11-21T09:02:43;1.02;;;0.90;;
17947;SDS011;9099;47.958;11.366;2023-11-21T09:05:11;1.95;;;1.40;;
17947;SDS011;9099;47.958;11.366;2023-11-21T09:07:39;0.60;;;0.60;;
17947;SDS011;9099;47.958;11.366;2023-11-21T09:10:07;1.40;;;0.90;;
17947;SDS011;9099;47.958;11.366;2023-11-21T09:12:34;2.22;;;1.50;;
17947;SDS011;9099;47.958;11.366;2023-11-21T09:15:03;0.63;;;0.50;;
17947;SDS011;9099;47.958;11.366;2023-11-21T09:17:32;1.60;;;0.77;;
17947;SDS011;9099;47.958;11.366;2023-11-21T09:20:00;0.98;;;0.77;;
17947;SDS011;9099;47.958;11.366;2023-11-21T09:22:28;1.20;;;0.63;;
17947;SDS011;9099;47.958;11.366;2023-11-21T09:24:56;0.75;;;0.70;;
17947;SDS011;9099;47.958;11.366;2023-11-21T09:27:23;0.90;;;0.77;;
17947;SDS011;9099;47.958;11.366;2023-11-21T09:29:51;0.45;;;0.45;;
17947;SDS011;9099;47.958;11.366;2023-11-21T09:32:18;1.20;;;0.63;;
17947;SDS011;9099;47.958;11.366;2023-11-21T09:34:47;0.75;;;0.50;;
17947;SDS011;9099;47.958;11.366;2023-11-21T09:37:15;0.93;;;0.80;;
17947;SDS011;9099;47.958;11.366;2023-11-21T09:39:42;0.55;;;0.55;;
17947;SDS011;9099;47.958;11.366;2023-11-21T09:42:10;0.55;;;0.55;;
17947;SDS011;9099;47.958;11.366;2023-11-21T09:44:43;0.68;;;0.40;;
17947;SDS011;9099;47.958;11.366;2023-11-21T09:47:14;1.13;;;0.43;;
17947;SDS011;9099;47.958;11.366;2023-11-21T09:49:42;0.32;;;0.30;;
17947;SDS011;9099;47.958;11.366;2023-11-21T09:52:18;0.50;;;0.50;;
17947;SDS011;9099;47.958;11.366;2023-11-21T09:54:50;0.50;;;0.50;;
17947;SDS011;9099;47.958;11.366;2023-11-21T09:57:18;1.10;;;0.50;;
17947;SDS011;9099;47.958;11.366;2023-11-21T09:59:46;1.10;;;0.57;;
17947;SDS011;9099;47.958;11.366;2023-11-21T10:02:17;0.68;;;0.50;;
17947;SDS011;9099;47.958;11.366;2023-11-21T10:04:46;0.55;;;0.55;;
17947;SDS011;9099;47.958;11.366;2023-11-21T10:07:13;0.93;;;0.68;;
17947;SDS011;9099;47.958;11.366;2023-11-21T10:09:45;0.85;;;0.75;;
17947;SDS011;9099;47.958;11.366;2023-11-21T10:12:13;1.63;;;0.70;;
17947;SDS011;9099;47.958;11.366;2023-11-21T10:14:41;0.30;;;0.30;;
17947;SDS011;9099;47.958;11.366;2023-11-21T10:17:12;0.68;;;0.68;;
17947;SDS011;9099;47.958;11.366;2023-11-21T10:19:41;1.10;;;0.60;;
17947;SDS011;9099;47.958;11.366;2023-11-21T10:22:10;0.85;;;0.45;;
17947;SDS011;9099;47.958;11.366;2023-11-21T10:24:38;1.02;;;0.60;;
17947;SDS011;9099;47.958;11.366;2023-11-21T10:27:05;0.65;;;0.60;;
17947;SDS011;9099;47.958;11.366;2023-11-21T10:32:55;1.02;;;0.70;;
17947;SDS011;9099;47.958;11.366;2023-11-21T10:35:29;0.70;;;0.50;;
17947;SDS011;9099;47.958;11.366;2023-11-21T10:38:05;1.10;;;0.70;;
17947;SDS011;9099;47.958;11.366;2023-11-21T10:40:36;0.95;;;0.45;;
17947;SDS011;9099;47.958;11.366;2023-11-21T10:43:07;0.52;;;0.52;;
17947;SDS011;9099;47.958;11.366;2023-11-21T10:45:35;1.05;;;0.50;;
17947;SDS011;9099;47.958;11.366;2023-11-21T10:48:04;0.70;;;0.50;;
17947;SDS011;9099;47.958;11.366;2023-11-21T10:50:33;0.70;;;0.60;;
17947;SDS011;9099;47.958;11.366;2023-11-21T10:53:01;0.88;;;0.68;;
17947;SDS011;9099;47.958;11.366;2023-11-21T10:55:28;0.60;;;0.60;;
17947;SDS011;9099;47.958;11.366;2023-11-21T10:57:58;0.73;;;0.55;;
17947;SDS011;9099;47.958;11.366;2023-11-21T11:00:27;1.05;;;0.57;;
17947;SDS011;9099;47.958;11.366;2023-11-21T11:02:55;0.60;;;0.60;;
17947;SDS011;9099;47.958;11.366;2023-11-21T11:05:24;1.52;;;0.73;;
17947;SDS011;9099;47.958;11.366;2023-11-21T11:07:56;1.25;;;0.50;;
17947;SDS011;9099;47.958;11.366;2023-11-21T11:10:27;0.75;;;0.52;;
17947;SDS011;9099;47.958;11.366;2023-11-21T11:12:55;1.65;;;0.60;;
17947;SDS011;9099;47.958;11.366;2023-11-21T11:15:24;1.02;;;0.52;;
17947;SDS011;9099;47.958;11.366;2023-11-21T11:17:52;1.38;;;0.75;;
17947;SDS011;9099;47.958;11.366;2023-11-21T11:20:22;0.75;;;0.38;;
17947;SDS011;9099;47.958;11.366;2023-11-21T11:22:56;0.75;;;0.68;;
17947;SDS011;9099;47.958;11.366;2023-11-21T11:25:46;1.20;;;0.50;;
17947;SDS011;9099;47.958;11.366;2023-11-21T11:28:22;0.75;;;0.47;;
17947;SDS011;9099;47.958;11.366;2023-11-21T11:31:00;1.02;;;0.60;;
17947;SDS011;9099;47.958;11.366;2023-11-21T11:33:38;0.75;;;0.70;;
17947;SDS011;9099;47.958;11.366;2023-11-21T11:36:10;1.23;;;0.40;;
17947;SDS011;9099;47.958;11.366;2023-11-21T11:38:45;0.50;;;0.50;;
17947;SDS011;9099;47.958;11.366;2023-11-21T11:41:15;3.20;;;0.70;;
17947;SDS011;9099;47.958;11.366;2023-11-21T11:43:51;1.00;;;0.80;;
17947;SDS011;9099;47.958;11.366;2023-11-21T11:46:19;0.95;;;0.60;;
17947;SDS011;9099;47.958;11.366;2023-11-21T11:48:47;0.98;;;0.50;;
17947;SDS011;9099;47.958;11.366;2023-11-21T11:51:28;1.45;;;0.60;;
17947;SDS011;9099;47.958;11.366;2023-11-21T11:53:56;0.40;;;0.40;;
17947;SDS011;9099;47.958;11.366;2023-11-21T11:56:24;0.50;;;0.50;;
17947;SDS011;9099;47.958;11.366;2023-11-21T11:58:53;1.73;;;0.70;;
17947;SDS011;9099;47.958;11.366;2023-11-21T12:01:21;0.73;;;0.57;;
17947;SDS011;9099;47.958;11.366;2023-11-21T12:06:56;1.50;;;0.52;;
17947;SDS011;9099;47.958;11.366;2023-11-21T12:09:25;1.08;;;0.63;;
17947;SDS011;9099;47.958;11.366;2023-11-21T12:11:53;0.70;;;0.70;;
17947;SDS011;9099;47.958;11.366;2023-11-21T12:14:21;1.30;;;0.80;;
17947;SDS011;9099;47.958;11.366;2023-11-21T12:16:50;1.92;;;0.82;;
17947;SDS011;9099;47.958;11.366;2023-11-21T12:19:18;0.77;;;0.73;;
17947;SDS011;9099;47.958;11.366;2023-11-21T12:21:46;0.80;;;0.80;;
17947;SDS011;9099;47.958;11.366;2023-11-21T12:24:15;0.75;;;0.60;;
17947;SDS011;9099;47.958;11.366;2023-11-21T12:26:42;1.33;;;0.52;;
17947;SDS011;9099;47.958;11.366;2023-11-21T12:29:10;2.42;;;0.82;;
17947;SDS011;9099;47.958;11.366;2023-11-21T12:31:37;0.82;;;0.65;;
17947;SDS011;9099;47.958;11.366;2023-11-21T12:34:05;1.58;;;0.70;;
17947;SDS011;9099;47.958;11.366;2023-11-21T12:36:34;0.93;;;0.60;;
17947;SDS011;9099;47.958;11.366;2023-11-21T12:39:01;0.80;;;0.70;;
17947;SDS011;9099;47.958;11.366;2023-11-21T12:41:29;0.75;;;0.65;;
17947;SDS011;9099;47.958;11.366;2023-11-21T12:43:56;3.33;;;1.30;;
17947;SDS011;9099;47.958;11.366;2023-11-21T12:46:24;12.80;;;9.82;;
17947;SDS011;9099;47.958;11.366;2023-11-21T12:48:54;7.45;;;6.75;;
17947;SDS011;9099;47.958;11.366;2023-11-21T12:51:23;3.13;;;2.30;;
17947;SDS011;9099;47.958;11.366;2023-11-21T12:53:50;1.65;;;1.30;;
17947;SDS011;9099;47.958;11.366;2023-11-21T12:56:17;1.38;;;0.90;;
17947;SDS011;9099;47.958;11.366;2023-11-21T12:58:48;1.55;;;0.80;;
17947;SDS011;9099;47.958;11.366;2023-11-21T13:01:15;0.73;;;0.60;;
17947;SDS011;9099;47.958;11.366;2023-11-21T13:03:45;1.35;;;0.60;;
17947;SDS011;9099;47.958;11.366;2023-11-21T13:06:15;1.02;;;0.70;;
17947;SDS011;9099;47.958;11.366;2023-11-21T13:08:45;1.30;;;0.70;;
17947;SDS011;9099;47.958;11.366;2023-11-21T13:11:12;1.77;;;0.70;;
17947;SDS011;9099;47.958;11.366;2023-11-21T13:13:40;1.15;;;0.50;;
17947;SDS011;9099;47.958;11.366;2023-11-21T13:16:08;1.00;;;0.60;;
17947;SDS011;9099;47.958;11.366;2023-11-21T13:18:35;2.53;;;0.68;;
17947;SDS011;9099;47.958;11.366;2023-11-21T13:21:03;0.70;;;0.70;;
17947;SDS011;9099;47.958;11.366;2023-11-21T13:23:35;2.42;;;2.30;;
17947;SDS011;9099;47.958;11.366;2023-11-21T13:26:04;2.13;;;1.52;;
17947;SDS011;9099;47.958;11.366;2023-11-21T13:28:31;0.70;;;0.70;;
17947;SDS011;9099;47.958;11.366;2023-11-21T13:30:59;1.73;;;0.90;;
17947;SDS011;9099;47.958;11.366;2023-11-21T13:33:34;1.13;;;0.65;;
17947;SDS011;9099;47.958;11.366;2023-11-21T13:36:03;2.08;;;1.10;;
17947;SDS011;9099;47.958;11.366;2023-11-21T13:38:33;1.42;;;1.30;;
17947;SDS011;9099;47.958;11.366;2023-11-21T13:41:01;2.45;;;1.02;;
17947;SDS011;9099;47.958;11.366;2023-11-21T13:43:33;1.00;;;0.90;;
17947;SDS011;9099;47.958;11.366;2023-11-21T13:46:02;1.00;;;0.90;;
17947;SDS011;9099;47.958;11.366;2023-11-21T13:48:38;1.55;;;1.30;;
17947;SDS011;9099;47.958;11.366;2023-11-21T13:51:08;4.35;;;1.75;;
17947;SDS011;9099;47.958;11.366;2023-11-21T13:53:42;2.25;;;1.50;;
17947;SDS011;9099;47.958;11.366;2023-11-21T13:56:10;1.98;;;1.55;;
17947;SDS011;9099;47.958;11.366;2023-11-21T13:58:42;1.40;;;1.30;;
17947;SDS011;9099;47.958;11.366;2023-11-21T14:01:15;1.98;;;1.10;;
17947;SDS011;9099;47.958;11.366;2023-11-21T14:04:06;1.30;;;1.20;;
17947;SDS011;9099;47.958;11.366;2023-11-21T14:06:44;0.90;;;0.88;;
17947;SDS011;9099;47.958;11.366;2023-11-21T14:09:13;1.45;;;1.10;;
17947;SDS011;9099;47.958;11.366;2023-11-21T14:11:47;2.40;;;0.90;;
17947;SDS011;9099;47.958;11.366;2023-11-21T14:14:16;0.90;;;0.90;;
17947;SDS011;9099;47.958;11.366;2023-11-21T14:16:43;1.50;;;1.40;;
17947;SDS011;9099;47.958;11.366;2023-11-21T14:19:10;1.38;;;1.10;;
17947;SDS011;9099;47.958;11.366;2023-11-21T14:21:40;1.48;;;1.02;;
17947;SDS011;9099;47.958;11.366;2023-11-21T14:24:09;2.15;;;1.02;;
17947;SDS011;9099;47.958;11.366;2023-11-21T14:26:38;0.80;;;0.80;;
17947;SDS011;9099;47.958;11.366;2023-11-21T14:29:05;1.73;;;0.85;;
17947;SDS011;9099;47.958;11.366;2023-11-21T14:31:35;1.27;;;0.75;;
17947;SDS011;9099;47.958;11.366;2023-11-21T14:34:02;1.08;;;0.90;;
17947;SDS011;9099;47.958;11.366;2023-11-21T14:36:31;2.55;;;2.15;;
17947;SDS011;9099;47.958;11.366;2023-11-21T14:38:58;3.58;;;3.28;;
17947;SDS011;9099;47.958;11.366;2023-11-21T14:41:24;3.05;;;2.55;;
17947;SDS011;9099;47.958;11.366;2023-11-21T14:43:53;4.05;;;3.28;;
17947;SDS011;9099;47.958;11.366;2023-11-21T14:46:20;3.20;;;2.65;;
17947;SDS011;9099;47.958;11.366;2023-11-21T14:48:48;1.98;;;1.77;;
17947;SDS011;9099;47.958;11.366;2023-11-21T14:51:23;2.10;;;1.90;;
17947;SDS011;9099;47.958;11.366;2023-11-21T14:53:55;1.50;;;1.40;;
17947;SDS011;9099;47.958;11.366;2023-11-21T14:56:25;1.30;;;1.20;;
17947;SDS011;9099;47.958;11.366;2023-11-21T14:58:56;1.27;;;1.17;;
17947;SDS011;9099;47.958;11.366;2023-11-21T15:01:23;1.55;;;1.10;;
17947;SDS011;9099;47.958;11.366;2023-11-21T15:04:09;1.90;;;1.20;;